Hovedside
METAR-TAF:

METAR-TAF

Lufthavner :

Molde lufthavn. Årø

Molde, Norge

breddegrad: 62-45N, lengdegrad: 007-16E, høyde over havet: 0 m

Gjeldene værobservasjon

Denne rapporten ble laget for 54 minutter siden, klokken 12:20 UTC
Vind 3 kt fra Sør, skiftende mellom Sør-sørøst og Sør-sørvest
Temperatur 18°C
Luftfuktighet 68%
Trykk 1010 hPa
Sikt 10 km eller mer
Få skyer i en høyde av 2000 ft
Brutte skyer i en høyde av 7500 ft

METAR: ENML 301220Z 18003KT 150V210 9999 FEW020 BKN075 18/12 Q1010

Tid: 15:14 (13:14 UTC)

Varsel

Denne rapporten ble laget for 2 timer og 14 minutter siden, klokken 11:00 UTC
Varsel gyldig fra 30. klokken 12 UTC til 30. klokken 21 UTC
Vind 6 kt fra Vest-sørvest
Sikt 10 km eller mer
Få skyer i en høyde av 2500 ft
Brutte skyer i en høyde av 9000 ft
Midlertidig
fra 30. klokken 14 UTC til 30. klokken 21 UTC
Spredte skyer i en høyde av 4000 ft, Bygeskyer.

TAF: ENML 301100Z 3012/3021 25006KT 9999 FEW025 BKN090 TEMPO 3014/3021 SCT040CB

Værobservasjoner og værvarsel for over 4000 flyplasser (METAR- og TAF-rapporter).

Tilgjengelige stasjoner er representert av de røde og gule prikkene på kartet.

Hold musepekeren over prikken for å se navnet på stasjonen.

Klikk så for å se værobservasjoner og -varsler.

For å forandre kartet kan du klikke på den grønne knappen med svart kryss for å zoome inn, på den grønne knappen med strek for å zoome ut, eller på de grønne pilene for å se tilstøtende kart.


METAR-TAF: